createdAt,value
2023-04-27T00:01:54.037Z,100745.29738300144
2023-04-27T00:04:51.772Z,100752.39430760812
2023-04-27T00:07:47.032Z,100745.6618310219
2023-04-27T00:10:42.588Z,100739.84053997142
2023-04-27T00:13:38.186Z,100739.90921133694
2023-04-27T00:16:35.792Z,100744.47661558827
2023-04-27T00:19:32.254Z,100753.37916972155
2023-04-27T00:22:29.838Z,100754.33573197381
2023-04-27T00:25:25.408Z,100752.12977126706
2023-04-27T00:28:20.962Z,100748.86077746228
2023-04-27T00:31:16.596Z,100745.9946452973
2023-04-27T00:34:12.094Z,100745.70738661832
2023-04-27T00:37:07.663Z,100745.5111914706
2023-04-27T00:40:08.183Z,100743.79115907989
2023-04-27T00:43:03.757Z,100742.96032764835
2023-04-27T00:46:00.457Z,100737.77280253246
2023-04-27T00:48:56.911Z,100740.58261368978
2023-04-27T00:51:52.426Z,100738.49170503771
2023-04-27T00:54:52.022Z,100744.92170678145
2023-04-27T00:57:47.548Z,100745.33739918262
2023-04-27T01:00:45.111Z,100744.78617740735
2023-04-27T01:03:41.930Z,100757.80843263876
2023-04-27T01:06:39.228Z,100760.70630081077
2023-04-27T01:09:36.805Z,100775.06289888322
2023-04-27T01:12:32.339Z,100777.01890192184
2023-04-27T01:18:34.446Z,100782.77724488494
2023-04-27T01:21:31.995Z,100780.42834866946
2023-04-27T01:24:27.575Z,100785.02986528091
2023-04-27T01:27:25.109Z,100785.32231029664
2023-04-27T01:30:22.745Z,100786.52677097543
2023-04-27T01:33:18.200Z,100792.76279877845
2023-04-27T01:36:14.739Z,100793.73217372374
2023-04-27T01:39:11.500Z,100797.75185529774
2023-04-27T01:42:06.935Z,100797.16215742247
2023-04-27T01:45:03.507Z,100795.91536313665
2023-04-27T01:48:00.104Z,100800.45610369803
2023-04-27T01:50:55.611Z,100803.97823517823
2023-04-27T01:56:58.687Z,100805.57675148563
2023-04-27T01:59:54.276Z,100808.93590379646
2023-04-27T02:02:51.002Z,100808.19719888543
2023-04-27T02:05:47.452Z,100804.8384362222
2023-04-27T02:08:43.947Z,100806.00543463853
2023-04-27T02:11:39.467Z,100809.56210692765
2023-04-27T02:14:35.071Z,100811.09123527653
2023-04-27T02:17:31.638Z,100810.8245745429
2023-04-27T02:20:30.157Z,100812.5780654246
2023-04-27T02:23:25.724Z,100810.31055038096
2023-04-27T02:26:22.307Z,100815.71125583522
2023-04-27T02:29:18.817Z,100815.3263014626
2023-04-27T02:32:14.402Z,100815.30593634408
2023-04-27T02:35:10.957Z,100826.65605027758
2023-04-27T02:38:06.523Z,100827.67197918388
2023-04-27T02:41:02.072Z,100829.73569461673
2023-04-27T02:43:57.668Z,100829.46012439998
2023-04-27T02:46:53.248Z,100833.20489155024
2023-04-27T02:49:48.728Z,100838.19262839103
2023-04-27T02:52:44.311Z,100840.91120155534
2023-04-27T02:55:45.861Z,100830.34601634167
2023-04-27T02:58:41.429Z,100834.84461850446
2023-04-27T03:01:38.109Z,100832.88687035505
2023-04-27T03:04:36.661Z,100843.69240649571
2023-04-27T03:07:32.114Z,100841.27714973936
2023-04-27T03:13:41.190Z,100845.06013099909
2023-04-27T03:16:37.841Z,100847.7733041212
2023-04-27T03:19:33.288Z,100847.78704404841
2023-04-27T03:22:28.889Z,100852.40220951023
2023-04-27T03:28:29.983Z,100855.06543474081
2023-04-27T03:34:31.026Z,100866.62236403296
2023-04-27T03:37:26.608Z,100866.5423107636
2023-04-27T03:40:22.162Z,100871.4643204082
2023-04-27T03:43:18.743Z,100865.96639487191
2023-04-27T03:46:14.359Z,100870.75703565624
2023-04-27T03:49:10.923Z,100874.37269837953
2023-04-27T03:52:06.392Z,100876.38455850534
2023-04-27T03:55:03.052Z,100880.60943370378
2023-04-27T03:57:58.535Z,100881.5687133283
2023-04-27T04:00:58.108Z,100881.08716212008
2023-04-27T04:03:53.759Z,100890.42519640064
2023-04-27T04:06:49.196Z,100890.31893100402
2023-04-27T04:09:44.768Z,100893.76303814739
2023-04-27T04:12:40.345Z,100893.15280995506
2023-04-27T04:15:35.907Z,100897.3599818984
2023-04-27T04:21:37.005Z,100897.58041659213
2023-04-27T04:24:32.526Z,100893.33983381237
2023-04-27T04:27:28.100Z,100899.0828518113
2023-04-27T04:33:29.264Z,100913.5494403303
2023-04-27T04:36:24.750Z,100922.96575438326
2023-04-27T04:39:21.330Z,100921.02183141898
2023-04-27T04:42:16.883Z,100922.68936446968
2023-04-27T04:45:19.193Z,100925.8594423072
2023-04-27T04:48:17.081Z,100931.17255964779
2023-04-27T04:51:13.544Z,100922.92876632405
2023-04-27T04:54:15.114Z,100927.72413031854
2023-04-27T04:57:12.666Z,100929.50489277704
2023-04-27T05:00:16.529Z,100932.51469844999
2023-04-27T05:03:17.930Z,100937.92947704755
2023-04-27T05:06:13.287Z,100939.19168246716
2023-04-27T05:09:09.890Z,100943.75370227375
2023-04-27T05:12:06.499Z,100947.42740463042
2023-04-27T05:15:02.988Z,100953.5826841639
2023-04-27T05:18:01.616Z,100961.67409266195
2023-04-27T05:20:57.097Z,100961.64365077016
2023-04-27T05:23:57.667Z,100961.8201075291
2023-04-27T05:26:55.208Z,100977.27727433534
2023-04-27T05:29:51.737Z,100972.56110690393
2023-04-27T05:32:50.361Z,100980.41295909898
2023-04-27T05:35:52.103Z,100972.87533799367
2023-04-27T05:38:51.430Z,100970.33141188265
2023-04-27T05:41:48.960Z,100973.6471289401
2023-04-27T05:44:48.528Z,100972.69803415291
2023-04-27T05:47:44.072Z,100977.82351449887
2023-04-27T05:50:44.748Z,100980.18897987633
2023-04-27T05:53:41.211Z,100983.163384232
2023-04-27T05:56:47.595Z,100985.9642317324
2023-04-27T05:59:54.253Z,100985.40544151222
2023-04-27T06:02:56.950Z,100983.56381695796
2023-04-27T06:06:11.278Z,100991.31810555777
2023-04-27T06:09:13.001Z,100995.27903147791
2023-04-27T06:12:15.412Z,100997.71730124626
2023-04-27T06:15:18.746Z,101002.99932168164
2023-04-27T06:18:29.485Z,101005.08268349527
2023-04-27T06:21:36.507Z,101011.9066297485
2023-04-27T06:24:36.603Z,101013.10174320305
2023-04-27T06:27:39.092Z,101015.03134110961
2023-04-27T06:30:39.877Z,101014.65646548156
2023-04-27T06:33:40.213Z,101015.26444270984
2023-04-27T06:36:35.740Z,101015.8948327763
2023-04-27T06:39:46.747Z,101012.64001483431
2023-04-27T06:42:50.804Z,101018.84786855201
2023-04-27T06:45:55.647Z,101017.42435106817
2023-04-27T06:48:52.941Z,101009.76671385551
2023-04-27T06:52:02.437Z,101021.46573921706
2023-04-27T06:55:11.035Z,101017.6845049116
2023-04-27T06:58:12.544Z,101027.50245150506
2023-04-27T07:04:23.458Z,101019.28152283495
2023-04-27T07:07:35.156Z,101025.07216715915
2023-04-27T07:10:37.648Z,101025.07594811011
2023-04-27T07:13:33.222Z,101023.83329912023
2023-04-27T07:16:30.828Z,101026.11076486856
2023-04-27T07:19:36.290Z,101026.19574116098
2023-04-27T07:22:44.857Z,101026.42818047827
2023-04-27T07:25:50.370Z,101029.02335885633
2023-04-27T07:29:14.418Z,101031.37809896008
2023-04-27T07:32:10.550Z,101037.14382455774
2023-04-27T07:35:11.193Z,101039.41866951389
2023-04-27T07:38:17.563Z,101038.20324231788
2023-04-27T07:41:26.055Z,101043.89046561638
2023-04-27T07:44:23.788Z,101042.32833724088
2023-04-27T07:47:29.659Z,101044.88495365778
2023-04-27T07:50:27.697Z,101048.47147369153
2023-04-27T07:53:24.252Z,101045.51951504777
2023-04-27T07:56:21.801Z,101047.22464694164
2023-04-27T07:59:28.342Z,101046.82323356789
2023-04-27T08:02:28.876Z,101048.40217294972
2023-04-27T08:05:29.929Z,101050.6047483592
2023-04-27T08:08:39.825Z,101051.90484577736
2023-04-27T08:11:46.510Z,101051.47537236105
2023-04-27T08:14:46.032Z,101054.58603685397
2023-04-27T08:17:57.576Z,101052.66273139622
2023-04-27T08:20:53.134Z,101053.21159016539
2023-04-27T08:23:52.644Z,101044.08943678072
2023-04-27T08:26:58.076Z,101058.34610140121
2023-04-27T08:30:05.836Z,101052.14513036732
2023-04-27T08:33:08.338Z,101062.34004277451
2023-04-27T08:36:10.856Z,101051.94107671785
2023-04-27T08:39:08.418Z,101056.45841368237
2023-04-27T08:42:08.910Z,101058.19828793676
2023-04-27T08:45:10.458Z,101062.62791557288
2023-04-27T08:48:10.928Z,101064.97109685175
2023-04-27T08:51:15.587Z,101062.91288372331
2023-04-27T08:54:29.013Z,101059.50343612257
2023-04-27T08:57:25.642Z,101057.28086749466
2023-04-27T09:00:27.219Z,101048.93509326578
2023-04-27T09:03:40.961Z,101054.06714374544
2023-04-27T09:06:46.421Z,101044.48562934218
2023-04-27T09:10:00.735Z,101044.24545350725
2023-04-27T09:13:01.887Z,101057.84539366886
2023-04-27T09:15:57.957Z,101053.598425026
2023-04-27T09:18:59.551Z,101047.37978898769
2023-04-27T09:22:04.955Z,101055.23713259236
2023-04-27T09:28:15.070Z,101049.63707085093
2023-04-27T09:31:18.353Z,101049.5290861211
2023-04-27T09:34:39.429Z,101050.24642429687
2023-04-27T09:37:46.612Z,101048.7450641464
2023-04-27T09:44:02.695Z,101043.28997786436
2023-04-27T09:47:14.178Z,101046.86536315102
2023-04-27T09:53:21.279Z,101048.1390823118
2023-04-27T09:56:42.895Z,101043.82329716336
2023-04-27T10:00:00.492Z,101041.37293389747
2023-04-27T10:03:12.222Z,101040.81618400128
2023-04-27T10:06:38.315Z,101030.97345653313
2023-04-27T10:09:50.492Z,101030.30601113648
2023-04-27T10:12:57.391Z,101033.86554098994
2023-04-27T10:15:57.885Z,101021.07968605512
2023-04-27T10:19:08.474Z,101024.07271505342
2023-04-27T10:22:13.582Z,101032.07051835193
2023-04-27T10:25:26.511Z,101022.92690661935
2023-04-27T10:28:36.684Z,101008.98922648205
2023-04-27T10:31:43.512Z,101013.66957502549
2023-04-27T10:34:51.050Z,101010.35649915716
2023-04-27T10:37:57.745Z,101001.24305236369
2023-04-27T10:41:09.954Z,100998.31403969828
2023-04-27T10:44:18.268Z,101005.4664721908
2023-04-27T10:47:24.109Z,101010.56746943663
2023-04-27T10:50:26.736Z,101012.2208821337
2023-04-27T10:53:34.273Z,101007.4798173668
2023-04-27T10:56:41.821Z,101003.67367275734
2023-04-27T10:59:50.305Z,101001.93066158151
2023-04-27T11:02:50.721Z,100994.61635353904
2023-04-27T11:05:57.682Z,100995.77387167935
2023-04-27T11:09:24.566Z,101006.48917737733
2023-04-27T11:12:23.488Z,101002.75650737045
2023-04-27T11:15:19.987Z,101009.02631691619
2023-04-27T11:24:51.101Z,101014.57870069245
2023-04-27T11:27:58.895Z,101016.47508935606
2023-04-27T11:31:00.782Z,101013.38319751654
2023-04-27T11:34:07.627Z,101003.64722274046
2023-04-27T11:37:18.329Z,101005.08762878555
2023-04-27T11:40:18.256Z,101003.18456748416
2023-04-27T11:43:25.810Z,101009.81022455613
2023-04-27T11:46:27.503Z,101005.51231118561
2023-04-27T11:49:37.863Z,101014.1478281905
2023-04-27T11:52:35.430Z,101021.19351485558
2023-04-27T11:55:36.953Z,101014.14318488535
2023-04-27T11:58:45.688Z,101013.65856840058
2023-04-27T12:01:52.083Z,101004.33100463702
2023-04-27T12:04:58.718Z,100999.64489583863
2023-04-27T12:07:59.282Z,101006.00803302052
2023-04-27T12:11:00.663Z,101001.5132065765
2023-04-27T12:13:57.227Z,100995.24609969463
2023-04-27T12:17:08.016Z,100998.3937834645
2023-04-27T12:20:08.829Z,100995.65273153568
2023-04-27T12:26:18.368Z,101001.11812053421
2023-04-27T12:29:15.907Z,101001.44345693517
2023-04-27T12:32:24.436Z,101001.75508167534
2023-04-27T12:35:32.209Z,100995.43496234927
2023-04-27T12:38:34.505Z,100998.91542744577
2023-04-27T12:41:39.814Z,100994.66730571419
2023-04-27T12:44:41.629Z,101001.73007467842
2023-04-27T12:50:56.623Z,100996.27664215436
2023-04-27T12:53:56.223Z,100992.13159294995
2023-04-27T12:56:58.776Z,100991.55361893799
2023-04-27T13:00:00.928Z,100991.72846299794
2023-04-27T13:03:08.763Z,100993.26056538787
2023-04-27T13:06:13.743Z,100995.47537408082
2023-04-27T13:09:13.934Z,100999.49589077056
2023-04-27T13:12:23.650Z,101000.62673488689
2023-04-27T13:15:29.147Z,100989.48108445453
2023-04-27T13:18:44.355Z,100988.63951008837
2023-04-27T13:21:49.459Z,100991.69952024342
2023-04-27T13:24:55.592Z,100988.62380526081
2023-04-27T13:28:05.144Z,100981.8951588435
2023-04-27T13:31:06.684Z,100984.2285258222
2023-04-27T13:34:16.587Z,100981.65385351378
2023-04-27T13:37:18.723Z,100989.55089020282
2023-04-27T13:40:34.021Z,100987.49377593736
2023-04-27T13:43:31.828Z,100984.76418584019
2023-04-27T13:46:34.265Z,100987.81610518596
2023-04-27T13:49:43.314Z,100994.36432113471
2023-04-27T13:52:45.390Z,100984.57056335305
2023-04-27T13:55:45.957Z,100994.4301210654
2023-04-27T13:58:52.250Z,100987.46309600651
2023-04-27T14:01:55.361Z,100985.5654206758
2023-04-27T14:04:56.596Z,100997.52421110978
2023-04-27T14:07:58.127Z,100984.48057713
2023-04-27T14:10:58.670Z,100984.40302290683
2023-04-27T14:14:03.443Z,100984.08946691634
2023-04-27T14:16:59.878Z,100977.12985570519
2023-04-27T14:20:04.836Z,100985.19637217437
2023-04-27T14:23:10.814Z,100988.44671195874
2023-04-27T14:26:24.853Z,100978.10904083829
2023-04-27T14:29:27.865Z,100981.93270779727
2023-04-27T14:32:28.283Z,100975.45690955868
2023-04-27T14:35:30.006Z,100978.527655105
2023-04-27T14:38:40.259Z,100984.80548707859
2023-04-27T14:41:41.087Z,100980.81542502299
2023-04-27T14:44:38.645Z,100987.21065044364
2023-04-27T14:47:45.659Z,100992.91734852178
2023-04-27T14:50:50.509Z,100991.89780758672
2023-04-27T14:53:51.245Z,100995.20649839954
2023-04-27T14:56:47.815Z,100999.27241548491
2023-04-27T14:59:45.364Z,101001.5629171929
2023-04-27T15:02:51.974Z,101002.54308883079
2023-04-27T15:05:49.487Z,101002.44968548835
2023-04-27T15:08:54.842Z,101009.29970493997
2023-04-27T15:11:58.300Z,101013.13714146757
2023-04-27T15:15:04.058Z,101004.22720636071
2023-04-27T15:18:11.626Z,101006.2206529457
2023-04-27T15:21:23.135Z,101008.29524956142
2023-04-27T15:24:27.676Z,101006.29130770195
2023-04-27T15:27:29.216Z,101007.4564670281
2023-04-27T15:30:29.775Z,101002.50978709273
2023-04-27T15:33:49.875Z,101004.53107404997
2023-04-27T15:36:58.779Z,101001.8833365674
2023-04-27T15:40:00.351Z,101005.92372520454
2023-04-27T15:43:05.894Z,101008.76214527484
2023-04-27T15:46:04.468Z,101004.12019520975
2023-04-27T15:49:05.993Z,101008.94974984601
2023-04-27T15:52:06.646Z,101006.497858535
2023-04-27T15:55:09.040Z,101014.1739438684
2023-04-27T15:58:20.566Z,101004.89273765835
2023-04-27T16:01:25.667Z,101011.44502678036
2023-04-27T16:04:22.748Z,101010.95484206348
2023-04-27T16:07:18.269Z,101009.14974363828
2023-04-27T16:10:13.891Z,101017.4156668716
2023-04-27T16:13:14.345Z,101010.71560788949
2023-04-27T16:16:19.263Z,101014.25837126747
2023-04-27T16:19:19.445Z,101013.56084682173
2023-04-27T16:22:24.996Z,101016.79877167607
2023-04-27T16:25:21.514Z,101020.7213029351
2023-04-27T16:28:25.460Z,101015.15239004183
2023-04-27T16:31:26.781Z,101013.17936395526
2023-04-27T16:34:32.371Z,101020.96970952801
2023-04-27T16:37:32.490Z,101021.2018585862
2023-04-27T16:40:37.089Z,101018.26238359924
2023-04-27T16:43:43.845Z,101011.37427365922
2023-04-27T16:46:56.201Z,101007.64645460868
2023-04-27T16:50:06.835Z,101013.31969181151
2023-04-27T16:53:20.354Z,101014.55243800825
2023-04-27T16:56:22.879Z,101011.70765207618
2023-04-27T16:59:24.463Z,101021.30737298312
2023-04-27T17:02:24.977Z,101017.82096560519
2023-04-27T17:05:22.544Z,101016.05630657038
2023-04-27T17:08:24.056Z,101022.01032964596
2023-04-27T17:11:34.607Z,101027.40208257365
2023-04-27T17:14:36.148Z,101025.35967311735
2023-04-27T17:17:33.792Z,101022.97259195562
2023-04-27T17:20:35.113Z,101028.3132193565
2023-04-27T17:23:36.075Z,101033.46562937471
2023-04-27T17:26:45.305Z,101035.15844919892
2023-04-27T17:29:53.882Z,101040.3576117957
2023-04-27T17:32:51.444Z,101036.87898113987
2023-04-27T17:35:52.957Z,101041.74308762739
2023-04-27T17:39:05.438Z,101041.45495441846
2023-04-27T17:42:12.375Z,101041.5627574286
2023-04-27T17:45:15.510Z,101052.31766138293
2023-04-27T17:48:11.177Z,101050.21190081142
2023-04-27T17:51:09.698Z,101058.79126408206
2023-04-27T17:54:11.221Z,101059.06268509415
2023-04-27T17:57:11.751Z,101061.76507762536
2023-04-27T18:00:18.323Z,101064.70503845158
2023-04-27T18:03:28.069Z,101065.36545630722
2023-04-27T18:06:29.471Z,101072.25692115385
2023-04-27T18:09:33.927Z,101072.54052672205
2023-04-27T18:12:33.445Z,101080.20236322068
2023-04-27T18:15:33.037Z,101080.40417487342
2023-04-27T18:18:39.559Z,101084.99029880366
2023-04-27T18:21:41.126Z,101092.54493056642
2023-04-27T18:24:42.646Z,101089.6665140966
2023-04-27T18:30:49.151Z,101097.10501368904
2023-04-27T18:34:00.145Z,101099.29681117837
2023-04-27T18:36:58.830Z,101104.34468169427
2023-04-27T18:39:56.357Z,101111.57187291015
2023-04-27T18:42:52.931Z,101117.49624312071
2023-04-27T18:49:05.019Z,101117.05004779944
2023-04-27T18:52:07.556Z,101125.7172583517
2023-04-27T18:55:04.096Z,101126.92290205021
2023-04-27T18:58:01.650Z,101130.44123664265
2023-04-27T19:01:05.226Z,101127.22477189387
2023-04-27T19:04:09.394Z,101128.58530422546
2023-04-27T19:07:09.275Z,101133.71331636218
2023-04-27T19:10:06.868Z,101138.96394502425
2023-04-27T19:13:10.368Z,101135.767304462
2023-04-27T19:16:07.913Z,101136.82079988696
2023-04-27T19:19:04.484Z,101141.9457451483
2023-04-27T19:22:00.442Z,101137.99973274027
2023-04-27T19:25:01.667Z,101145.1077923602
2023-04-27T19:28:07.176Z,101145.32738434433
2023-04-27T19:31:09.502Z,101149.75021544658
2023-04-27T19:34:14.009Z,101152.01432532023
2023-04-27T19:37:20.062Z,101152.46813947136
2023-04-27T19:40:21.322Z,101156.88029985783
2023-04-27T19:43:21.868Z,101153.35918931855
2023-04-27T19:46:22.442Z,101151.62816928451
2023-04-27T19:49:24.957Z,101153.7895399315
2023-04-27T19:52:30.473Z,101147.26870808026
2023-04-27T19:55:29.042Z,101146.04105139898
2023-04-27T19:58:24.678Z,101148.81703069819
2023-04-27T20:01:24.163Z,101144.11106788833
2023-04-27T20:04:30.122Z,101147.68624003351
2023-04-27T20:07:31.289Z,101150.42476616801
2023-04-27T20:10:41.639Z,101152.85176172935
2023-04-27T20:13:50.656Z,101147.66691517888
2023-04-27T20:16:57.859Z,101149.9566676319
2023-04-27T20:19:58.352Z,101147.71935914962
2023-04-27T20:23:07.821Z,101148.5800435719
2023-04-27T20:26:06.468Z,101153.64575244777
2023-04-27T20:29:06.865Z,101154.3499941169
2023-04-27T20:32:12.045Z,101156.5765901111
2023-04-27T20:35:26.963Z,101157.49610692744
2023-04-27T20:38:28.609Z,101160.66213079923
2023-04-27T20:41:36.139Z,101170.9633889319
2023-04-27T20:44:38.776Z,101169.44073300931
2023-04-27T20:47:43.316Z,101163.84411973279
2023-04-27T20:50:44.614Z,101170.08282178799
2023-04-27T20:53:52.353Z,101167.517659118
2023-04-27T20:56:57.915Z,101170.10595057537
2023-04-27T20:59:53.471Z,101168.85908550411
2023-04-27T21:02:57.128Z,101171.84698738084
2023-04-27T21:06:02.465Z,101171.13689972527
2023-04-27T21:09:07.808Z,101175.2535473443
2023-04-27T21:15:23.078Z,101171.60125810886
2023-04-27T21:18:30.074Z,101170.85139141652
2023-04-27T21:21:27.163Z,101177.5239127946
2023-04-27T21:24:24.078Z,101179.7218692541
2023-04-27T21:27:20.263Z,101180.81635616717
2023-04-27T21:30:20.827Z,101185.48978090397
2023-04-27T21:33:21.105Z,101183.45084429448
2023-04-27T21:36:24.911Z,101189.5680213391
2023-04-27T21:39:20.518Z,101188.35086935238
2023-04-27T21:42:26.016Z,101186.3552794619
2023-04-27T21:45:37.058Z,101184.4301824707
2023-04-27T21:48:38.072Z,101180.71441966498
2023-04-27T21:51:34.642Z,101191.30247662035
2023-04-27T21:54:35.204Z,101190.87140188989
2023-04-27T22:00:50.263Z,101202.36817303835
2023-04-27T22:04:00.637Z,101197.16044307822
2023-04-27T22:07:12.196Z,101202.4372046671
2023-04-27T22:10:12.863Z,101200.40424943734
2023-04-27T22:13:19.653Z,101206.31443331782
2023-04-27T22:16:19.784Z,101207.14569192997
2023-04-27T22:19:19.488Z,101208.78434889075
2023-04-27T22:22:23.998Z,101208.66945829509
2023-04-27T22:25:25.548Z,101210.20158131325
2023-04-27T22:28:21.115Z,101208.22696780418
2023-04-27T22:31:21.796Z,101212.55694331884
2023-04-27T22:34:23.046Z,101210.19157015106
2023-04-27T22:37:24.775Z,101213.32652598066
2023-04-27T22:40:25.141Z,101208.78430781125
2023-04-27T22:43:35.846Z,101210.63962574473
2023-04-27T22:46:36.867Z,101214.34941835327
2023-04-27T22:52:46.333Z,101221.5153340027
2023-04-27T22:55:53.729Z,101222.34625120866
2023-04-27T22:59:07.520Z,101221.51438090908
2023-04-27T23:02:17.221Z,101221.25949383974
2023-04-27T23:05:17.598Z,101225.5449216986
2023-04-27T23:08:19.551Z,101224.59998256942
2023-04-27T23:11:23.167Z,101222.794411353
2023-04-27T23:14:32.077Z,101221.84095443906
2023-04-27T23:17:33.882Z,101219.66621960189
2023-04-27T23:20:39.138Z,101218.062209795
2023-04-27T23:23:35.817Z,101219.81510826071
2023-04-27T23:26:38.179Z,101216.81038493554
2023-04-27T23:32:40.551Z,101209.43236307995
2023-04-27T23:35:37.052Z,101211.82671002575
2023-04-27T23:38:32.552Z,101214.68078571669
2023-04-27T23:41:28.179Z,101217.12068602651
2023-04-27T23:44:23.769Z,101223.63244995155
2023-04-27T23:47:19.292Z,101225.33197787036
2023-04-27T23:50:15.863Z,101223.17688869567
2023-04-27T23:53:11.419Z,101222.97688333341
2023-04-27T23:56:11.949Z,101231.07265861971
2023-04-27T23:59:07.531Z,101234.00807928175
